sensor_id;sensor_type;location;lat;lon;timestamp;pressure;altitude;pressure_sealevel;temperature;humidity
62124;BME280;48110;47.532;19.078;2023-05-02T00:01:50;100465.25;;;11.63;77.93
62124;BME280;48110;47.532;19.078;2023-05-02T00:04:56;100459.44;;;11.60;76.95
62124;BME280;48110;47.532;19.078;2023-05-02T00:07:58;100465.22;;;11.80;76.15
62124;BME280;48110;47.532;19.078;2023-05-02T00:11:01;100459.09;;;11.63;76.28
62124;BME280;48110;47.532;19.078;2023-05-02T00:14:04;100457.78;;;11.59;76.07
62124;BME280;48110;47.532;19.078;2023-05-02T00:17:06;100457.00;;;11.50;78.09
62124;BME280;48110;47.532;19.078;2023-05-02T00:20:10;100451.16;;;11.55;78.03
62124;BME280;48110;47.532;19.078;2023-05-02T00:23:13;100462.41;;;11.65;78.35
62124;BME280;48110;47.532;19.078;2023-05-02T00:26:15;100457.31;;;11.55;77.57
62124;BME280;48110;47.532;19.078;2023-05-02T00:29:18;100452.00;;;11.55;78.85
62124;BME280;48110;47.532;19.078;2023-05-02T00:32:21;100458.09;;;11.64;77.58
62124;BME280;48110;47.532;19.078;2023-05-02T00:35:24;100453.75;;;11.71;77.41
62124;BME280;48110;47.532;19.078;2023-05-02T00:38:27;100462.53;;;11.71;75.88
62124;BME280;48110;47.532;19.078;2023-05-02T00:41:30;100455.75;;;11.69;77.19
62124;BME280;48110;47.532;19.078;2023-05-02T00:44:32;100451.44;;;11.76;77.48
62124;BME280;48110;47.532;19.078;2023-05-02T00:47:35;100448.78;;;11.76;77.37
62124;BME280;48110;47.532;19.078;2023-05-02T00:50:39;100454.44;;;11.73;74.62
62124;BME280;48110;47.532;19.078;2023-05-02T00:53:41;100459.75;;;11.73;72.88
62124;BME280;48110;47.532;19.078;2023-05-02T00:56:44;100469.69;;;11.79;71.18
62124;BME280;48110;47.532;19.078;2023-05-02T00:59:47;100455.34;;;11.88;69.87
62124;BME280;48110;47.532;19.078;2023-05-02T01:02:52;100455.34;;;11.88;69.78
62124;BME280;48110;47.532;19.078;2023-05-02T01:12:16;100461.72;;;12.10;69.79
62124;BME280;48110;47.532;19.078;2023-05-02T01:15:21;100460.19;;;12.15;67.76
62124;BME280;48110;47.532;19.078;2023-05-02T01:18:25;100460.53;;;12.12;63.88
62124;BME280;48110;47.532;19.078;2023-05-02T01:21:29;100455.88;;;12.14;63.91
62124;BME280;48110;47.532;19.078;2023-05-02T01:24:58;100456.19;;;12.19;64.56
62124;BME280;48110;47.532;19.078;2023-05-02T01:28:13;100455.06;;;12.14;63.41
62124;BME280;48110;47.532;19.078;2023-05-02T01:31:22;100455.22;;;12.12;67.23
62124;BME280;48110;47.532;19.078;2023-05-02T01:34:25;100453.78;;;12.02;67.78
62124;BME280;48110;47.532;19.078;2023-05-02T01:37:29;100449.66;;;11.99;68.62
62124;BME280;48110;47.532;19.078;2023-05-02T01:40:32;100449.75;;;12.06;65.94
62124;BME280;48110;47.532;19.078;2023-05-02T01:43:35;100449.34;;;11.94;65.77
62124;BME280;48110;47.532;19.078;2023-05-02T01:46:39;100445.41;;;11.90;69.50
62124;BME280;48110;47.532;19.078;2023-05-02T01:49:43;100439.94;;;11.84;68.44
62124;BME280;48110;47.532;19.078;2023-05-02T01:52:46;100448.56;;;11.86;66.48
62124;BME280;48110;47.532;19.078;2023-05-02T01:55:51;100448.25;;;11.81;68.85
62124;BME280;48110;47.532;19.078;2023-05-02T01:58:55;100449.78;;;11.67;68.52
62124;BME280;48110;47.532;19.078;2023-05-02T02:02:03;100447.63;;;11.62;69.05
62124;BME280;48110;47.532;19.078;2023-05-02T02:05:06;100446.81;;;11.62;71.48
62124;BME280;48110;47.532;19.078;2023-05-02T02:08:10;100441.16;;;11.65;69.01
62124;BME280;48110;47.532;19.078;2023-05-02T02:11:16;100438.31;;;11.74;68.78
62124;BME280;48110;47.532;19.078;2023-05-02T02:14:20;100432.66;;;11.69;69.73
62124;BME280;48110;47.532;19.078;2023-05-02T02:17:24;100430.53;;;11.65;70.02
62124;BME280;48110;47.532;19.078;2023-05-02T02:20:29;100437.72;;;11.56;70.76
62124;BME280;48110;47.532;19.078;2023-05-02T02:23:33;100440.22;;;11.50;71.33
62124;BME280;48110;47.532;19.078;2023-05-02T02:26:38;100442.56;;;11.45;72.46
62124;BME280;48110;47.532;19.078;2023-05-02T02:29:42;100431.62;;;11.40;73.56
62124;BME280;48110;47.532;19.078;2023-05-02T02:32:46;100430.94;;;11.46;75.73
62124;BME280;48110;47.532;19.078;2023-05-02T02:35:51;100425.03;;;11.27;76.76
62124;BME280;48110;47.532;19.078;2023-05-02T02:39:01;100423.37;;;11.18;79.25
62124;BME280;48110;47.532;19.078;2023-05-02T02:42:10;100436.38;;;11.05;81.05
62124;BME280;48110;47.532;19.078;2023-05-02T02:48:33;100434.91;;;10.86;83.77
62124;BME280;48110;47.532;19.078;2023-05-02T02:51:38;100432.09;;;10.88;85.51
62124;BME280;48110;47.532;19.078;2023-05-02T02:54:59;100431.13;;;10.89;87.87
62124;BME280;48110;47.532;19.078;2023-05-02T03:01:30;100440.91;;;10.56;91.67
62124;BME280;48110;47.532;19.078;2023-05-02T03:04:34;100436.25;;;10.42;95.54
62124;BME280;48110;47.532;19.078;2023-05-02T03:07:39;100441.22;;;10.37;98.45
62124;BME280;48110;47.532;19.078;2023-05-02T03:10:42;100442.41;;;10.51;99.25
62124;BME280;48110;47.532;19.078;2023-05-02T03:13:44;100438.75;;;10.43;98.63
62124;BME280;48110;47.532;19.078;2023-05-02T03:16:49;100441.06;;;10.46;99.69
62124;BME280;48110;47.532;19.078;2023-05-02T03:19:52;100444.72;;;10.37;100.00
62124;BME280;48110;47.532;19.078;2023-05-02T03:22:54;100440.59;;;10.43;100.00
62124;BME280;48110;47.532;19.078;2023-05-02T03:25:57;100443.72;;;10.46;98.95
62124;BME280;48110;47.532;19.078;2023-05-02T03:29:00;100444.88;;;10.52;98.67
62124;BME280;48110;47.532;19.078;2023-05-02T03:32:02;100445.06;;;10.42;100.00
62124;BME280;48110;47.532;19.078;2023-05-02T03:35:05;100443.56;;;10.40;100.00
62124;BME280;48110;47.532;19.078;2023-05-02T03:38:09;100445.06;;;10.34;100.00
62124;BME280;48110;47.532;19.078;2023-05-02T03:41:12;100461.13;;;10.33;100.00
62124;BME280;48110;47.532;19.078;2023-05-02T03:44:15;100455.62;;;10.26;100.00
62124;BME280;48110;47.532;19.078;2023-05-02T03:47:18;100463.09;;;10.23;100.00
62124;BME280;48110;47.532;19.078;2023-05-02T03:50:21;100462.62;;;10.35;100.00
62124;BME280;48110;47.532;19.078;2023-05-02T03:53:24;100465.25;;;10.27;100.00
62124;BME280;48110;47.532;19.078;2023-05-02T03:56:27;100470.56;;;10.27;100.00
62124;BME280;48110;47.532;19.078;2023-05-02T03:59:33;100464.13;;;10.30;100.00
62124;BME280;48110;47.532;19.078;2023-05-02T04:02:37;100469.06;;;10.33;100.00
62124;BME280;48110;47.532;19.078;2023-05-02T04:05:41;100478.22;;;10.30;100.00
62124;BME280;48110;47.532;19.078;2023-05-02T04:08:45;100473.41;;;10.42;100.00
62124;BME280;48110;47.532;19.078;2023-05-02T04:11:48;100479.03;;;10.39;100.00
62124;BME280;48110;47.532;19.078;2023-05-02T04:14:50;100475.91;;;10.35;100.00
62124;BME280;48110;47.532;19.078;2023-05-02T04:17:56;100484.34;;;10.39;100.00
62124;BME280;48110;47.532;19.078;2023-05-02T04:20:59;100474.56;;;10.39;100.00
62124;BME280;48110;47.532;19.078;2023-05-02T04:24:02;100478.06;;;10.40;100.00
62124;BME280;48110;47.532;19.078;2023-05-02T04:27:05;100482.88;;;10.44;100.00
62124;BME280;48110;47.532;19.078;2023-05-02T04:30:08;100484.34;;;10.47;100.00
62124;BME280;48110;47.532;19.078;2023-05-02T04:33:15;100484.84;;;10.59;100.00
62124;BME280;48110;47.532;19.078;2023-05-02T04:36:17;100488.00;;;10.70;100.00
62124;BME280;48110;47.532;19.078;2023-05-02T04:39:21;100493.63;;;10.92;100.00
62124;BME280;48110;47.532;19.078;2023-05-02T04:42:25;100494.47;;;10.92;99.81
62124;BME280;48110;47.532;19.078;2023-05-02T04:45:29;100491.09;;;11.14;97.44
62124;BME280;48110;47.532;19.078;2023-05-02T04:48:33;100496.56;;;11.29;96.05
62124;BME280;48110;47.532;19.078;2023-05-02T04:51:35;100496.94;;;11.18;96.70
62124;BME280;48110;47.532;19.078;2023-05-02T04:54:38;100507.03;;;11.14;95.36
62124;BME280;48110;47.532;19.078;2023-05-02T04:57:40;100503.75;;;11.12;95.24
62124;BME280;48110;47.532;19.078;2023-05-02T05:00:45;100509.72;;;11.22;95.89
62124;BME280;48110;47.532;19.078;2023-05-02T05:03:48;100504.38;;;11.30;94.41
62124;BME280;48110;47.532;19.078;2023-05-02T05:06:51;100509.13;;;11.43;95.25
62124;BME280;48110;47.532;19.078;2023-05-02T05:09:54;100508.44;;;11.57;94.46
62124;BME280;48110;47.532;19.078;2023-05-02T05:12:57;100507.06;;;11.77;90.82
62124;BME280;48110;47.532;19.078;2023-05-02T05:16:00;100507.00;;;11.94;89.37
62124;BME280;48110;47.532;19.078;2023-05-02T05:19:05;100500.72;;;12.17;86.99
62124;BME280;48110;47.532;19.078;2023-05-02T05:22:07;100507.72;;;12.18;85.58
62124;BME280;48110;47.532;19.078;2023-05-02T05:25:16;100512.56;;;12.15;84.79
62124;BME280;48110;47.532;19.078;2023-05-02T05:28:27;100515.25;;;12.38;83.83
62124;BME280;48110;47.532;19.078;2023-05-02T05:31:30;100518.50;;;12.48;83.09
62124;BME280;48110;47.532;19.078;2023-05-02T05:34:33;100517.12;;;12.75;82.05
62124;BME280;48110;47.532;19.078;2023-05-02T05:37:42;100516.88;;;12.84;80.42
62124;BME280;48110;47.532;19.078;2023-05-02T05:40:48;100520.53;;;13.06;80.02
62124;BME280;48110;47.532;19.078;2023-05-02T05:43:51;100529.72;;;13.26;77.06
62124;BME280;48110;47.532;19.078;2023-05-02T05:46:54;100526.28;;;13.18;76.27
62124;BME280;48110;47.532;19.078;2023-05-02T05:49:58;100532.19;;;13.42;77.19
62124;BME280;48110;47.532;19.078;2023-05-02T05:53:01;100532.66;;;13.61;77.41
62124;BME280;48110;47.532;19.078;2023-05-02T05:56:14;100540.31;;;13.64;77.35
62124;BME280;48110;47.532;19.078;2023-05-02T05:59:21;100544.09;;;13.84;76.79
62124;BME280;48110;47.532;19.078;2023-05-02T06:02:23;100540.50;;;13.77;74.71
62124;BME280;48110;47.532;19.078;2023-05-02T06:05:27;100547.81;;;14.04;75.30
62124;BME280;48110;47.532;19.078;2023-05-02T06:08:29;100545.06;;;14.12;72.86
62124;BME280;48110;47.532;19.078;2023-05-02T06:11:32;100542.34;;;14.42;73.29
62124;BME280;48110;47.532;19.078;2023-05-02T06:14:35;100540.00;;;14.53;72.34
62124;BME280;48110;47.532;19.078;2023-05-02T06:17:38;100546.94;;;14.69;70.80
62124;BME280;48110;47.532;19.078;2023-05-02T06:20:40;100546.13;;;14.68;71.09
62124;BME280;48110;47.532;19.078;2023-05-02T06:23:43;100548.87;;;14.75;69.88
62124;BME280;48110;47.532;19.078;2023-05-02T06:26:46;100547.66;;;14.99;68.72
62124;BME280;48110;47.532;19.078;2023-05-02T06:29:50;100547.62;;;15.20;68.79
62124;BME280;48110;47.532;19.078;2023-05-02T06:32:52;100547.06;;;15.52;68.77
62124;BME280;48110;47.532;19.078;2023-05-02T06:35:55;100549.88;;;15.72;64.73
62124;BME280;48110;47.532;19.078;2023-05-02T06:38:57;100533.75;;;16.00;63.88
62124;BME280;48110;47.532;19.078;2023-05-02T06:42:00;100543.09;;;16.24;61.54
62124;BME280;48110;47.532;19.078;2023-05-02T06:45:03;100545.03;;;16.56;61.25
62124;BME280;48110;47.532;19.078;2023-05-02T06:48:06;100542.22;;;16.64;62.05
62124;BME280;48110;47.532;19.078;2023-05-02T07:50:46;100553.94;;;24.31;38.28
62124;BME280;48110;47.532;19.078;2023-05-02T07:53:50;100553.94;;;24.31;38.28
62124;BME280;48110;47.532;19.078;2023-05-02T07:56:55;100554.31;;;23.07;39.49
62124;BME280;48110;47.532;19.078;2023-05-02T08:00:00;100557.25;;;23.06;39.93
62124;BME280;48110;47.532;19.078;2023-05-02T08:03:14;100555.69;;;23.10;40.16
62124;BME280;48110;47.532;19.078;2023-05-02T08:06:17;100554.41;;;23.62;39.22
62124;BME280;48110;47.532;19.078;2023-05-02T08:09:20;100554.00;;;22.75;40.03
62124;BME280;48110;47.532;19.078;2023-05-02T08:12:23;100553.78;;;24.64;38.56
62124;BME280;48110;47.532;19.078;2023-05-02T08:15:26;100559.97;;;24.86;36.81
62124;BME280;48110;47.532;19.078;2023-05-02T08:18:29;100553.62;;;25.39;36.65
62124;BME280;48110;47.532;19.078;2023-05-02T08:21:32;100563.22;;;24.35;37.58
62124;BME280;48110;47.532;19.078;2023-05-02T08:24:35;100558.47;;;24.47;37.17
62124;BME280;48110;47.532;19.078;2023-05-02T08:27:38;100557.75;;;23.19;39.67
62124;BME280;48110;47.532;19.078;2023-05-02T08:30:41;100559.88;;;23.34;39.21
62124;BME280;48110;47.532;19.078;2023-05-02T08:33:47;100566.84;;;23.80;38.66
62124;BME280;48110;47.532;19.078;2023-05-02T08:36:50;100560.72;;;24.82;36.42
62124;BME280;48110;47.532;19.078;2023-05-02T08:39:52;100557.78;;;25.89;34.08
62124;BME280;48110;47.532;19.078;2023-05-02T08:42:55;100558.34;;;26.78;34.18
62124;BME280;48110;47.532;19.078;2023-05-02T08:45:58;100553.97;;;26.52;33.94
62124;BME280;48110;47.532;19.078;2023-05-02T08:49:04;100545.84;;;26.67;33.66
62124;BME280;48110;47.532;19.078;2023-05-02T08:52:08;100538.72;;;25.84;35.87
62124;BME280;48110;47.532;19.078;2023-05-02T08:55:13;100545.69;;;23.60;37.35
62124;BME280;48110;47.532;19.078;2023-05-02T08:58:17;100544.56;;;24.16;37.17
62124;BME280;48110;47.532;19.078;2023-05-02T09:01:22;100553.16;;;24.13;38.44
62124;BME280;48110;47.532;19.078;2023-05-02T09:04:30;100542.53;;;24.55;37.81
62124;BME280;48110;47.532;19.078;2023-05-02T09:07:46;100543.97;;;24.36;37.03
62124;BME280;48110;47.532;19.078;2023-05-02T09:10:49;100536.69;;;25.59;35.99
62124;BME280;48110;47.532;19.078;2023-05-02T09:13:54;100530.59;;;26.81;34.85
62124;BME280;48110;47.532;19.078;2023-05-02T09:16:58;100524.50;;;25.67;34.37
62124;BME280;48110;47.532;19.078;2023-05-02T09:20:03;100520.41;;;25.22;35.91
62124;BME280;48110;47.532;19.078;2023-05-02T09:23:06;100531.75;;;24.60;36.63
62124;BME280;48110;47.532;19.078;2023-05-02T09:26:11;100517.09;;;25.20;37.86
62124;BME280;48110;47.532;19.078;2023-05-02T09:29:18;100523.97;;;25.70;35.20
62124;BME280;48110;47.532;19.078;2023-05-02T09:32:45;100525.78;;;24.58;35.98
62124;BME280;48110;47.532;19.078;2023-05-02T09:35:52;100522.44;;;24.78;35.76
62124;BME280;48110;47.532;19.078;2023-05-02T09:39:08;100525.31;;;25.67;33.36
62124;BME280;48110;47.532;19.078;2023-05-02T09:42:11;100532.53;;;25.99;33.77
62124;BME280;48110;47.532;19.078;2023-05-02T09:45:21;100521.91;;;25.92;33.29
62124;BME280;48110;47.532;19.078;2023-05-02T09:48:29;100524.87;;;24.80;36.46
62124;BME280;48110;47.532;19.078;2023-05-02T09:51:32;100520.19;;;24.97;34.86
62124;BME280;48110;47.532;19.078;2023-05-02T09:54:34;100521.63;;;27.11;33.00
62124;BME280;48110;47.532;19.078;2023-05-02T09:57:40;100515.03;;;29.10;29.95
62124;BME280;48110;47.532;19.078;2023-05-02T10:00:44;100512.88;;;29.41;29.95
62124;BME280;48110;47.532;19.078;2023-05-02T10:03:48;100511.03;;;29.60;28.27
62124;BME280;48110;47.532;19.078;2023-05-02T10:06:52;100507.38;;;29.12;28.89
62124;BME280;48110;47.532;19.078;2023-05-02T10:09:57;100505.44;;;29.70;28.60
62124;BME280;48110;47.532;19.078;2023-05-02T10:13:02;100502.47;;;30.71;27.21
62124;BME280;48110;47.532;19.078;2023-05-02T10:16:06;100503.50;;;30.56;26.80
62124;BME280;48110;47.532;19.078;2023-05-02T10:19:19;100502.47;;;31.35;27.07
62124;BME280;48110;47.532;19.078;2023-05-02T10:22:25;100504.66;;;32.78;25.21
62124;BME280;48110;47.532;19.078;2023-05-02T10:25:28;100496.91;;;30.38;26.89
62124;BME280;48110;47.532;19.078;2023-05-02T10:28:32;100494.84;;;30.68;26.78
62124;BME280;48110;47.532;19.078;2023-05-02T10:31:36;100501.72;;;29.37;27.56
62124;BME280;48110;47.532;19.078;2023-05-02T10:34:41;100499.25;;;27.50;29.59
62124;BME280;48110;47.532;19.078;2023-05-02T10:37:46;100491.94;;;30.21;27.57
62124;BME280;48110;47.532;19.078;2023-05-02T10:40:53;100505.69;;;31.56;26.08
62124;BME280;48110;47.532;19.078;2023-05-02T10:43:57;100491.75;;;31.66;25.60
62124;BME280;48110;47.532;19.078;2023-05-02T10:47:20;100496.72;;;30.53;26.26
62124;BME280;48110;47.532;19.078;2023-05-02T10:50:41;100495.25;;;30.00;28.04
62124;BME280;48110;47.532;19.078;2023-05-02T10:53:47;100494.37;;;31.58;26.74
62124;BME280;48110;47.532;19.078;2023-05-02T10:57:02;100496.72;;;31.50;26.93
62124;BME280;48110;47.532;19.078;2023-05-02T11:00:21;100489.78;;;31.39;26.47
62124;BME280;48110;47.532;19.078;2023-05-02T11:03:57;100487.22;;;33.05;24.07
62124;BME280;48110;47.532;19.078;2023-05-02T11:13:47;100480.44;;;31.40;26.73
62124;BME280;48110;47.532;19.078;2023-05-02T11:26:21;100473.91;;;32.54;25.50
62124;BME280;48110;47.532;19.078;2023-05-02T11:30:00;100471.37;;;31.13;27.15
62124;BME280;48110;47.532;19.078;2023-05-02T11:36:06;100464.88;;;29.01;29.62
62124;BME280;48110;47.532;19.078;2023-05-02T11:39:18;100454.66;;;30.07;27.75
62124;BME280;48110;47.532;19.078;2023-05-02T11:42:29;100454.28;;;28.61;30.45
62124;BME280;48110;47.532;19.078;2023-05-02T11:45:33;100458.81;;;31.25;27.46
62124;BME280;48110;47.532;19.078;2023-05-02T11:48:37;100456.78;;;33.02;26.20
62124;BME280;48110;47.532;19.078;2023-05-02T11:51:40;100458.31;;;31.37;26.84
62124;BME280;48110;47.532;19.078;2023-05-02T11:54:43;100450.69;;;30.88;28.10
62124;BME280;48110;47.532;19.078;2023-05-02T11:57:46;100446.59;;;32.00;26.19
62124;BME280;48110;47.532;19.078;2023-05-02T12:00:50;100447.09;;;30.74;26.70
62124;BME280;48110;47.532;19.078;2023-05-02T12:04:09;100432.84;;;27.95;29.27
62124;BME280;48110;47.532;19.078;2023-05-02T12:07:13;100427.69;;;26.63;32.85
62124;BME280;48110;47.532;19.078;2023-05-02T12:10:17;100441.47;;;30.65;28.21
62124;BME280;48110;47.532;19.078;2023-05-02T12:13:21;100437.09;;;33.08;25.39
62124;BME280;48110;47.532;19.078;2023-05-02T12:16:25;100437.94;;;34.57;23.72
62124;BME280;48110;47.532;19.078;2023-05-02T12:19:28;100439.88;;;34.73;22.80
62124;BME280;48110;47.532;19.078;2023-05-02T12:22:34;100426.53;;;33.02;24.89
62124;BME280;48110;47.532;19.078;2023-05-02T12:25:40;100421.66;;;32.23;25.29
62124;BME280;48110;47.532;19.078;2023-05-02T12:28:48;100418.06;;;30.40;27.21
62124;BME280;48110;47.532;19.078;2023-05-02T12:31:51;100431.59;;;30.13;27.67
62124;BME280;48110;47.532;19.078;2023-05-02T12:34:55;100424.06;;;29.62;27.29
62124;BME280;48110;47.532;19.078;2023-05-02T12:38:14;100420.16;;;32.04;24.44
62124;BME280;48110;47.532;19.078;2023-05-02T12:41:29;100426.19;;;30.64;25.25
62124;BME280;48110;47.532;19.078;2023-05-02T12:44:36;100410.09;;;30.06;26.80
62124;BME280;48110;47.532;19.078;2023-05-02T12:47:44;100411.75;;;30.58;24.90
62124;BME280;48110;47.532;19.078;2023-05-02T12:50:50;100405.97;;;30.41;26.70
62124;BME280;48110;47.532;19.078;2023-05-02T12:53:54;100403.47;;;29.22;27.04
62124;BME280;48110;47.532;19.078;2023-05-02T12:56:56;100406.41;;;28.73;27.21
62124;BME280;48110;47.532;19.078;2023-05-02T12:59:59;100404.66;;;28.15;27.77
62124;BME280;48110;47.532;19.078;2023-05-02T13:03:03;100407.06;;;27.72;28.33
62124;BME280;48110;47.532;19.078;2023-05-02T13:06:06;100398.00;;;26.82;30.67
62124;BME280;48110;47.532;19.078;2023-05-02T13:09:08;100401.31;;;26.28;30.63
62124;BME280;48110;47.532;19.078;2023-05-02T13:12:11;100399.87;;;26.11;30.85
62124;BME280;48110;47.532;19.078;2023-05-02T13:15:14;100390.97;;;24.96;32.43
62124;BME280;48110;47.532;19.078;2023-05-02T13:18:17;100397.50;;;24.63;33.11
62124;BME280;48110;47.532;19.078;2023-05-02T13:21:20;100394.59;;;24.16;33.82
62124;BME280;48110;47.532;19.078;2023-05-02T13:24:22;100385.63;;;24.37;35.28
62124;BME280;48110;47.532;19.078;2023-05-02T13:27:25;100391.44;;;23.97;34.45
62124;BME280;48110;47.532;19.078;2023-05-02T13:30:30;100391.34;;;24.14;34.83
62124;BME280;48110;47.532;19.078;2023-05-02T13:33:32;100393.50;;;23.85;35.01
62124;BME280;48110;47.532;19.078;2023-05-02T13:36:35;100386.19;;;23.64;37.07
62124;BME280;48110;47.532;19.078;2023-05-02T13:39:41;100383.50;;;23.64;36.98
62124;BME280;48110;47.532;19.078;2023-05-02T13:42:44;100375.25;;;23.75;36.18
62124;BME280;48110;47.532;19.078;2023-05-02T13:45:47;100381.84;;;23.85;37.62
62124;BME280;48110;47.532;19.078;2023-05-02T13:48:50;100376.22;;;24.18;35.88
62124;BME280;48110;47.532;19.078;2023-05-02T13:51:56;100376.34;;;24.06;35.49
62124;BME280;48110;47.532;19.078;2023-05-02T13:54:59;100378.25;;;23.79;35.24
62124;BME280;48110;47.532;19.078;2023-05-02T13:58:01;100386.59;;;23.34;35.71
62124;BME280;48110;47.532;19.078;2023-05-02T14:01:05;100383.47;;;23.20;36.32
62124;BME280;48110;47.532;19.078;2023-05-02T14:04:08;100383.22;;;23.44;36.29
62124;BME280;48110;47.532;19.078;2023-05-02T14:07:11;100386.19;;;23.64;37.58
62124;BME280;48110;47.532;19.078;2023-05-02T14:10:14;100384.31;;;23.64;37.26
62124;BME280;48110;47.532;19.078;2023-05-02T14:13:16;100388.69;;;23.27;36.80
62124;BME280;48110;47.532;19.078;2023-05-02T14:16:19;100377.66;;;23.33;36.46
62124;BME280;48110;47.532;19.078;2023-05-02T14:19:22;100383.81;;;23.46;37.70
62124;BME280;48110;47.532;19.078;2023-05-02T14:22:25;100382.56;;;23.53;37.43
62124;BME280;48110;47.532;19.078;2023-05-02T14:25:27;100381.06;;;23.62;37.75
62124;BME280;48110;47.532;19.078;2023-05-02T14:28:30;100388.78;;;23.54;38.65
62124;BME280;48110;47.532;19.078;2023-05-02T14:31:47;100386.41;;;23.57;39.41
62124;BME280;48110;47.532;19.078;2023-05-02T14:34:50;100376.00;;;23.71;40.10
62124;BME280;48110;47.532;19.078;2023-05-02T14:37:53;100378.47;;;23.51;40.30
62124;BME280;48110;47.532;19.078;2023-05-02T14:40:56;100381.44;;;23.11;36.34
62124;BME280;48110;47.532;19.078;2023-05-02T14:43:58;100386.09;;;23.15;37.35
62124;BME280;48110;47.532;19.078;2023-05-02T14:47:01;100382.47;;;23.26;37.20
62124;BME280;48110;47.532;19.078;2023-05-02T14:50:05;100376.22;;;23.04;36.39
62124;BME280;48110;47.532;19.078;2023-05-02T14:53:08;100379.94;;;22.81;36.40
62124;BME280;48110;47.532;19.078;2023-05-02T14:56:12;100388.94;;;23.04;36.20
62124;BME280;48110;47.532;19.078;2023-05-02T14:59:15;100384.66;;;23.08;38.32
62124;BME280;48110;47.532;19.078;2023-05-02T15:02:18;100380.53;;;23.05;37.14
62124;BME280;48110;47.532;19.078;2023-05-02T15:05:38;100391.12;;;22.90;36.75
62124;BME280;48110;47.532;19.078;2023-05-02T15:09:05;100383.37;;;22.93;36.74
62124;BME280;48110;47.532;19.078;2023-05-02T15:12:20;100377.88;;;22.88;37.42
62124;BME280;48110;47.532;19.078;2023-05-02T15:15:29;100376.41;;;22.64;37.54
62124;BME280;48110;47.532;19.078;2023-05-02T15:18:44;100377.62;;;22.57;37.52
62124;BME280;48110;47.532;19.078;2023-05-02T15:21:55;100390.00;;;22.36;38.39
62124;BME280;48110;47.532;19.078;2023-05-02T15:25:15;100386.28;;;22.42;38.22
62124;BME280;48110;47.532;19.078;2023-05-02T15:28:25;100385.41;;;22.36;38.19
62124;BME280;48110;47.532;19.078;2023-05-02T15:31:35;100391.78;;;22.47;37.84
62124;BME280;48110;47.532;19.078;2023-05-02T15:34:41;100381.31;;;22.67;37.91
62124;BME280;48110;47.532;19.078;2023-05-02T15:37:47;100381.72;;;22.59;37.73
62124;BME280;48110;47.532;19.078;2023-05-02T15:40:56;100390.22;;;23.01;37.78
62124;BME280;48110;47.532;19.078;2023-05-02T15:44:00;100376.37;;;22.98;37.36
62124;BME280;48110;47.532;19.078;2023-05-02T15:47:10;100383.03;;;22.90;36.88
62124;BME280;48110;47.532;19.078;2023-05-02T15:50:24;100378.56;;;22.79;37.19
62124;BME280;48110;47.532;19.078;2023-05-02T15:53:31;100378.78;;;22.77;37.75
62124;BME280;48110;47.532;19.078;2023-05-02T15:56:45;100373.16;;;22.79;39.04
62124;BME280;48110;47.532;19.078;2023-05-02T15:59:56;100371.97;;;22.91;39.13
62124;BME280;48110;47.532;19.078;2023-05-02T16:03:04;100372.78;;;22.92;38.94
62124;BME280;48110;47.532;19.078;2023-05-02T16:06:17;100375.34;;;22.82;38.36
62124;BME280;48110;47.532;19.078;2023-05-02T16:09:30;100374.34;;;22.71;39.27
62124;BME280;48110;47.532;19.078;2023-05-02T16:12:44;100371.22;;;22.63;37.85
62124;BME280;48110;47.532;19.078;2023-05-02T16:15:52;100374.81;;;22.51;38.08
62124;BME280;48110;47.532;19.078;2023-05-02T16:19:02;100379.50;;;22.39;37.93
62124;BME280;48110;47.532;19.078;2023-05-02T16:22:13;100367.38;;;22.59;38.92
62124;BME280;48110;47.532;19.078;2023-05-02T16:25:25;100368.94;;;22.71;39.54
62124;BME280;48110;47.532;19.078;2023-05-02T16:28:39;100369.13;;;22.31;37.79
62124;BME280;48110;47.532;19.078;2023-05-02T16:31:49;100371.00;;;22.31;37.27
62124;BME280;48110;47.532;19.078;2023-05-02T16:34:54;100362.53;;;22.27;37.28
62124;BME280;48110;47.532;19.078;2023-05-02T16:38:16;100366.88;;;22.12;37.61
62124;BME280;48110;47.532;19.078;2023-05-02T16:41:33;100365.38;;;22.04;37.70
62124;BME280;48110;47.532;19.078;2023-05-02T16:44:40;100364.22;;;22.00;37.67
62124;BME280;48110;47.532;19.078;2023-05-02T16:47:54;100369.09;;;21.86;38.17
62124;BME280;48110;47.532;19.078;2023-05-02T16:51:04;100360.78;;;21.76;38.31
62124;BME280;48110;47.532;19.078;2023-05-02T16:54:18;100365.56;;;21.86;38.76
62124;BME280;48110;47.532;19.078;2023-05-02T16:57:22;100359.97;;;21.76;39.91
62124;BME280;48110;47.532;19.078;2023-05-02T17:00:34;100362.63;;;21.59;38.53
62124;BME280;48110;47.532;19.078;2023-05-02T17:03:38;100375.66;;;21.50;38.99
62124;BME280;48110;47.532;19.078;2023-05-02T17:06:44;100373.56;;;21.41;40.83
62124;BME280;48110;47.532;19.078;2023-05-02T17:10:00;100373.97;;;21.21;42.52
62124;BME280;48110;47.532;19.078;2023-05-02T17:13:15;100382.66;;;21.00;43.55
62124;BME280;48110;47.532;19.078;2023-05-02T17:16:27;100395.31;;;20.88;44.13
62124;BME280;48110;47.532;19.078;2023-05-02T17:19:42;100399.06;;;20.75;45.12
62124;BME280;48110;47.532;19.078;2023-05-02T17:22:47;100415.44;;;20.50;46.22
62124;BME280;48110;47.532;19.078;2023-05-02T17:25:55;100412.59;;;20.33;47.84
62124;BME280;48110;47.532;19.078;2023-05-02T17:29:05;100413.91;;;20.13;49.35